Terminal Aerodrome Forecast
Issued by NWS Memphis, TN

Home | Current Version | Previous Version | Text Only | Print | Product List | Glossary On
Versions: 1 2 3 4 5 6 7 8 9 10 11 12 13 14 15 16 17 18
000
FTUS44 KMEG 311724
TAFMKL
TAF
KMKL 311724Z 3118/0118 28007KT P6SM SCT035 SCT250
     FM312300 25006KT 6SM -SHRA VCTS SCT035CB BKN040
     FM010400 VRB03KT 5SM BR SCT040 BKN090
     FM010900 VRB03KT 3SM BR SCT015 BKN090
     FM011500 10006KT P6SM SCT025 SCT250=

USA.gov is the U.S. government's official web portal to all federal, state and local government web resources and services.